createdAt,value
2023-04-20T00:00:01.781Z,0.00
2023-04-20T00:01:01.654Z,0.00
2023-04-20T00:02:01.704Z,0.00
2023-04-20T00:03:01.817Z,0.00
2023-04-20T00:04:01.702Z,0.00
2023-04-20T00:05:01.671Z,0.00
2023-04-20T00:06:01.583Z,0.00
2023-04-20T00:07:01.586Z,0.00
2023-04-20T00:08:02.580Z,0.00
2023-04-20T00:09:01.583Z,0.00
2023-04-20T00:10:01.609Z,0.00
2023-04-20T00:11:01.561Z,0.00
2023-04-20T00:12:01.545Z,0.00
2023-04-20T00:13:01.547Z,0.00
2023-04-20T00:14:01.534Z,0.00
2023-04-20T00:15:01.503Z,0.00
2023-04-20T00:16:01.538Z,0.00
2023-04-20T00:17:01.575Z,0.00
2023-04-20T00:18:01.560Z,0.00
2023-04-20T00:19:01.480Z,0.00
2023-04-20T00:20:01.466Z,0.00
2023-04-20T00:21:01.560Z,0.00
2023-04-20T00:22:01.453Z,0.00
2023-04-20T00:23:01.438Z,0.00
2023-04-20T00:24:01.438Z,0.00
2023-04-20T00:25:01.437Z,0.00
2023-04-20T00:26:01.399Z,0.00
2023-04-20T00:27:01.418Z,0.00
2023-04-20T00:28:01.437Z,0.00
2023-04-20T00:29:01.388Z,0.00
2023-04-20T00:30:01.441Z,0.00
2023-04-20T00:31:01.386Z,0.00
2023-04-20T00:32:01.433Z,0.00
2023-04-20T00:33:01.365Z,0.00
2023-04-20T00:34:01.320Z,0.00
2023-04-20T00:35:01.338Z,0.00
2023-04-20T00:36:01.328Z,0.00
2023-04-20T00:37:01.303Z,0.00
2023-04-20T00:38:01.279Z,0.00
2023-04-20T00:39:01.281Z,0.00
2023-04-20T00:40:01.285Z,0.00
2023-04-20T00:41:01.295Z,0.00
2023-04-20T00:42:01.251Z,0.00
2023-04-20T00:43:01.253Z,0.00
2023-04-20T00:44:01.242Z,0.00
2023-04-20T00:45:01.212Z,0.00
2023-04-20T00:46:01.235Z,0.00
2023-04-20T00:47:01.224Z,0.00
2023-04-20T00:48:01.216Z,0.00
2023-04-20T00:49:01.170Z,0.00
2023-04-20T00:50:01.147Z,0.00
2023-04-20T00:51:01.180Z,0.00
2023-04-20T00:52:01.156Z,0.00
2023-04-20T00:53:01.132Z,0.00
2023-04-20T00:54:01.118Z,0.00
2023-04-20T00:55:01.124Z,0.00
2023-04-20T00:56:01.126Z,0.00
2023-04-20T00:57:01.102Z,0.00
2023-04-20T00:58:01.106Z,0.00
2023-04-20T00:59:01.076Z,0.00
2023-04-20T01:00:01.070Z,0.00
2023-04-20T01:01:01.072Z,0.00
2023-04-20T01:02:01.122Z,0.00
2023-04-20T01:03:01.202Z,0.00
2023-04-20T01:04:01.076Z,0.00
2023-04-20T01:05:01.035Z,0.00
2023-04-20T01:06:01.001Z,0.00
2023-04-20T01:07:01.019Z,0.00
2023-04-20T01:08:01.043Z,0.00
2023-04-20T01:09:00.989Z,0.00
2023-04-20T01:10:01.975Z,0.00
2023-04-20T01:11:00.943Z,0.00
2023-04-20T01:12:00.946Z,0.00
2023-04-20T01:13:00.954Z,0.00
2023-04-20T01:14:00.998Z,0.00
2023-04-20T01:15:00.913Z,0.00
2023-04-20T01:16:00.929Z,0.00
2023-04-20T01:17:00.904Z,0.00
2023-04-20T01:18:00.937Z,0.00
2023-04-20T01:19:00.891Z,0.00
2023-04-20T01:20:00.898Z,0.00
2023-04-20T01:21:00.868Z,0.00
2023-04-20T01:22:00.839Z,0.00
2023-04-20T01:23:00.847Z,0.00
2023-04-20T01:24:00.856Z,0.00
2023-04-20T01:25:00.825Z,0.00
2023-04-20T01:26:00.838Z,0.00
2023-04-20T01:27:00.825Z,0.00
2023-04-20T01:28:00.797Z,0.00
2023-04-20T01:29:00.804Z,0.00
2023-04-20T01:30:00.765Z,0.00
2023-04-20T01:31:00.877Z,0.00
2023-04-20T01:32:00.753Z,0.00
2023-04-20T01:33:00.778Z,0.00
2023-04-20T01:34:00.740Z,0.00
2023-04-20T01:35:00.745Z,0.00
2023-04-20T01:36:00.720Z,0.00
2023-04-20T01:37:00.704Z,0.00
2023-04-20T01:38:00.703Z,0.00
2023-04-20T01:39:00.692Z,0.00
2023-04-20T01:40:00.711Z,0.00
2023-04-20T01:41:00.666Z,0.00
2023-04-20T01:42:00.665Z,0.00
2023-04-20T01:43:00.668Z,0.00
2023-04-20T01:44:00.661Z,0.00
2023-04-20T01:45:00.630Z,0.00
2023-04-20T01:46:00.625Z,0.00
2023-04-20T01:47:00.795Z,0.00
2023-04-20T01:48:00.647Z,0.00
2023-04-20T01:49:00.611Z,0.00
2023-04-20T01:50:00.598Z,0.00
2023-04-20T01:51:00.573Z,0.00
2023-04-20T01:52:00.606Z,0.00
2023-04-20T01:53:00.541Z,0.00
2023-04-20T01:54:00.540Z,0.00
2023-04-20T01:55:00.552Z,0.00
2023-04-20T01:56:00.521Z,0.00
2023-04-20T01:57:00.524Z,0.00
2023-04-20T01:58:00.510Z,0.00
2023-04-20T01:59:00.518Z,0.00
2023-04-20T02:00:00.503Z,0.00
2023-04-20T02:01:00.531Z,0.00
2023-04-20T02:02:00.525Z,0.00
2023-04-20T02:03:00.638Z,0.00
2023-04-20T02:04:00.542Z,0.00
2023-04-20T02:05:00.447Z,0.00
2023-04-20T02:06:00.428Z,0.00
2023-04-20T02:07:00.421Z,0.00
2023-04-20T02:08:00.439Z,0.00
2023-04-20T02:09:00.437Z,0.00
2023-04-20T02:10:00.415Z,0.00
2023-04-20T02:11:00.392Z,0.00
2023-04-20T02:12:00.385Z,0.00
2023-04-20T02:13:00.384Z,0.00
2023-04-20T02:14:00.387Z,0.00
2023-04-20T02:15:00.358Z,0.00
2023-04-20T02:16:00.359Z,0.00
2023-04-20T02:17:00.378Z,0.00
2023-04-20T02:18:00.436Z,0.00
2023-04-20T02:19:00.303Z,0.00
2023-04-20T02:20:00.295Z,0.00
2023-04-20T02:21:00.325Z,0.00
2023-04-20T02:22:00.281Z,0.00
2023-04-20T02:23:00.290Z,0.00
2023-04-20T02:24:00.250Z,0.00
2023-04-20T02:25:00.254Z,0.00
2023-04-20T02:26:00.245Z,0.00
2023-04-20T02:27:00.220Z,0.00
2023-04-20T02:28:00.261Z,0.00
2023-04-20T02:29:00.214Z,0.00
2023-04-20T02:30:00.196Z,0.00
2023-04-20T02:31:00.234Z,0.00
2023-04-20T02:32:00.170Z,0.00
2023-04-20T02:33:00.207Z,0.00
2023-04-20T02:34:00.209Z,0.00
2023-04-20T02:35:00.185Z,0.00
2023-04-20T02:36:00.194Z,0.00
2023-04-20T02:37:00.116Z,0.00
2023-04-20T02:38:00.148Z,0.00
2023-04-20T02:39:00.112Z,0.00
2023-04-20T02:40:00.188Z,0.00
2023-04-20T02:41:00.122Z,0.00
2023-04-20T02:42:00.109Z,0.00
2023-04-20T02:43:00.085Z,0.00
2023-04-20T02:44:00.051Z,0.00
2023-04-20T02:45:00.047Z,0.00
2023-04-20T02:46:00.080Z,0.00
2023-04-20T02:47:00.069Z,0.00
2023-04-20T02:48:00.168Z,0.00
2023-04-20T02:49:00.020Z,0.00
2023-04-20T02:50:00.033Z,0.00
2023-04-20T02:51:31.925Z,0.00
2023-04-20T02:51:59.986Z,0.00
2023-04-20T02:52:59.981Z,0.00
2023-04-20T02:53:59.961Z,0.00
2023-04-20T02:54:59.930Z,0.00
2023-04-20T02:55:59.998Z,0.00
2023-04-20T02:56:59.922Z,0.00
2023-04-20T02:57:59.932Z,0.00
2023-04-20T02:58:59.912Z,0.00
2023-04-20T02:59:59.895Z,0.00
2023-04-20T03:00:59.897Z,0.00
2023-04-20T03:01:59.951Z,0.00
2023-04-20T03:02:59.963Z,0.00
2023-04-20T03:03:59.982Z,0.00
2023-04-20T03:04:59.843Z,0.00
2023-04-20T03:05:59.850Z,0.00
2023-04-20T03:06:59.847Z,0.00
2023-04-20T03:07:59.847Z,0.00
2023-04-20T03:08:59.809Z,0.00
2023-04-20T03:09:59.795Z,0.00
2023-04-20T03:10:59.777Z,0.00
2023-04-20T03:11:59.794Z,0.00
2023-04-20T03:12:59.781Z,0.00
2023-04-20T03:13:59.758Z,0.00
2023-04-20T03:14:59.776Z,0.00
2023-04-20T03:15:59.781Z,0.00
2023-04-20T03:16:59.723Z,0.00
2023-04-20T03:17:59.799Z,0.00
2023-04-20T03:18:59.727Z,0.00
2023-04-20T03:19:59.703Z,0.00
2023-04-20T03:20:59.701Z,0.00
2023-04-20T03:21:59.678Z,0.00
2023-04-20T03:22:59.680Z,0.00
2023-04-20T03:23:59.670Z,0.00
2023-04-20T03:24:59.701Z,0.00
2023-04-20T03:25:59.633Z,0.00
2023-04-20T03:26:59.630Z,0.00
2023-04-20T03:27:59.612Z,0.00
2023-04-20T03:28:59.664Z,0.00
2023-04-20T03:29:59.626Z,0.00
2023-04-20T03:30:59.577Z,0.00
2023-04-20T03:31:59.664Z,0.00
2023-04-20T03:32:59.647Z,0.00
2023-04-20T03:33:59.556Z,0.00
2023-04-20T03:34:59.574Z,0.00
2023-04-20T03:35:59.564Z,0.00
2023-04-20T03:36:59.547Z,0.00
2023-04-20T03:37:59.527Z,0.00
2023-04-20T03:38:59.539Z,0.00
2023-04-20T03:39:59.516Z,0.00
2023-04-20T03:40:59.506Z,0.00
2023-04-20T03:41:59.486Z,0.00
2023-04-20T03:42:59.484Z,0.00
2023-04-20T03:43:59.471Z,0.00
2023-04-20T03:44:59.466Z,0.00
2023-04-20T03:45:59.511Z,0.00
2023-04-20T03:46:59.439Z,0.00
2023-04-20T03:47:59.446Z,0.00
2023-04-20T03:48:59.415Z,4.00
2023-04-20T03:49:59.431Z,4.00
2023-04-20T03:50:59.413Z,0.00
2023-04-20T03:51:59.411Z,4.00
2023-04-20T03:52:59.373Z,4.00
2023-04-20T03:53:59.353Z,4.00
2023-04-20T03:54:59.378Z,4.00
2023-04-20T03:55:59.350Z,8.00
2023-04-20T03:56:59.348Z,8.00
2023-04-20T03:57:59.338Z,8.00
2023-04-20T03:58:59.389Z,12.00
2023-04-20T03:59:59.303Z,12.00
2023-04-20T04:00:59.292Z,12.00
2023-04-20T04:01:59.356Z,16.00
2023-04-20T04:02:59.460Z,16.00
2023-04-20T04:03:59.679Z,20.00
2023-04-20T04:04:59.330Z,24.00
2023-04-20T04:05:59.267Z,20.00
2023-04-20T04:06:59.279Z,24.00
2023-04-20T04:07:59.232Z,24.00
2023-04-20T04:08:59.222Z,32.00
2023-04-20T04:09:59.237Z,36.00
2023-04-20T04:10:59.233Z,40.00
2023-04-20T04:11:59.235Z,52.00
2023-04-20T04:12:59.236Z,64.00
2023-04-20T04:13:59.180Z,64.00
2023-04-20T04:14:59.168Z,68.00
2023-04-20T04:15:59.184Z,72.00
2023-04-20T04:16:59.207Z,80.00
2023-04-20T04:17:59.186Z,88.00
2023-04-20T04:18:59.171Z,84.00
2023-04-20T04:19:59.146Z,84.00
2023-04-20T04:20:59.127Z,88.00
2023-04-20T04:21:59.111Z,96.00
2023-04-20T04:22:59.081Z,104.00
2023-04-20T04:23:59.084Z,104.00
2023-04-20T04:24:59.089Z,112.00
2023-04-20T04:25:59.067Z,124.00
2023-04-20T04:26:59.056Z,152.00
2023-04-20T04:27:59.048Z,172.00
2023-04-20T04:28:59.056Z,192.00
2023-04-20T04:29:59.020Z,220.00
2023-04-20T04:31:00.050Z,236.00
2023-04-20T04:31:58.990Z,256.00
2023-04-20T04:32:59.005Z,252.00
2023-04-20T04:33:59.058Z,248.00
2023-04-20T04:34:59.008Z,244.00
2023-04-20T04:35:58.987Z,256.00
2023-04-20T04:36:58.955Z,276.00
2023-04-20T04:37:58.974Z,284.00
2023-04-20T04:38:58.934Z,312.00
2023-04-20T04:39:58.931Z,332.00
2023-04-20T04:40:58.923Z,364.00
2023-04-20T04:41:58.903Z,408.00
2023-04-20T04:42:58.908Z,432.00
2023-04-20T04:43:58.885Z,484.00
2023-04-20T04:44:58.882Z,496.00
2023-04-20T04:45:58.909Z,496.00
2023-04-20T04:46:58.853Z,488.00
2023-04-20T04:47:58.916Z,456.00
2023-04-20T04:48:58.833Z,440.00
2023-04-20T04:49:58.860Z,436.00
2023-04-20T04:50:58.825Z,468.00
2023-04-20T04:51:58.811Z,556.00
2023-04-20T04:52:58.802Z,600.00
2023-04-20T04:53:58.823Z,564.00
2023-04-20T04:54:58.801Z,520.00
2023-04-20T04:55:58.768Z,496.00
2023-04-20T04:56:58.768Z,512.00
2023-04-20T04:57:58.753Z,560.00
2023-04-20T04:58:58.735Z,592.00
2023-04-20T04:59:58.734Z,560.00
2023-04-20T05:00:58.774Z,540.00
2023-04-20T05:01:58.774Z,532.00
2023-04-20T05:02:58.886Z,512.00
2023-04-20T05:03:58.891Z,540.00
2023-04-20T05:04:58.684Z,576.00
2023-04-20T05:05:58.690Z,568.00
2023-04-20T05:06:58.676Z,552.00
2023-04-20T05:07:58.655Z,528.00
2023-04-20T05:08:58.650Z,528.00
2023-04-20T05:09:58.628Z,548.00
2023-04-20T05:10:58.639Z,544.00
2023-04-20T05:11:58.608Z,564.00
2023-04-20T05:12:58.623Z,584.00
2023-04-20T05:13:58.597Z,572.00
2023-04-20T05:14:58.588Z,544.00
2023-04-20T05:15:58.614Z,512.00
2023-04-20T05:16:58.577Z,500.00
2023-04-20T05:17:58.651Z,540.00
2023-04-20T05:18:58.552Z,556.00
2023-04-20T05:19:58.723Z,592.00
2023-04-20T05:20:58.586Z,620.00
2023-04-20T05:21:58.535Z,616.00
2023-04-20T05:22:58.532Z,640.00
2023-04-20T05:23:58.501Z,672.00
2023-04-20T05:24:58.541Z,676.00
2023-04-20T05:25:58.489Z,632.00
2023-04-20T05:26:58.486Z,652.00
2023-04-20T05:27:58.463Z,676.00
2023-04-20T05:28:58.453Z,712.00
2023-04-20T05:30:12.662Z,740.00
2023-04-20T05:30:59.460Z,752.00
2023-04-20T05:31:58.458Z,748.00
2023-04-20T05:32:58.424Z,776.00
2023-04-20T05:33:58.409Z,788.00
2023-04-20T05:34:58.421Z,820.00
2023-04-20T05:35:58.399Z,832.00
2023-04-20T05:36:58.373Z,828.00
2023-04-20T05:37:58.370Z,856.00
2023-04-20T05:38:58.373Z,864.00
2023-04-20T05:39:58.383Z,892.00
2023-04-20T05:40:58.349Z,896.00
2023-04-20T05:41:58.387Z,888.00
2023-04-20T05:42:58.325Z,948.00
2023-04-20T05:43:58.307Z,972.00
2023-04-20T05:44:58.311Z,1048.00
2023-04-20T05:45:58.406Z,1088.00
2023-04-20T05:46:58.271Z,1080.00
2023-04-20T05:47:58.298Z,1156.00
2023-04-20T05:48:58.257Z,1148.00
2023-04-20T05:49:58.270Z,1152.00
2023-04-20T05:50:58.235Z,1148.00
2023-04-20T05:51:58.228Z,1172.00
2023-04-20T05:52:58.223Z,1144.00
2023-04-20T05:53:58.326Z,1120.00
2023-04-20T05:54:58.240Z,1100.00
2023-04-20T05:55:58.211Z,1104.00
2023-04-20T05:56:58.181Z,1004.00
2023-04-20T05:57:58.173Z,960.00
2023-04-20T05:58:58.175Z,972.00
2023-04-20T05:59:58.165Z,1000.00
2023-04-20T06:00:58.167Z,1004.00
2023-04-20T06:01:58.169Z,1008.00
2023-04-20T06:02:58.260Z,972.00
2023-04-20T06:03:58.330Z,968.00
2023-04-20T06:04:58.218Z,940.00
2023-04-20T06:05:58.104Z,880.00
2023-04-20T06:06:58.078Z,808.00
2023-04-20T06:07:58.103Z,792.00
2023-04-20T06:08:58.116Z,772.00
2023-04-20T06:09:58.065Z,780.00
2023-04-20T06:10:58.059Z,784.00
2023-04-20T06:11:58.036Z,784.00
2023-04-20T06:12:58.053Z,776.00
2023-04-20T06:13:58.028Z,784.00
2023-04-20T06:14:58.039Z,756.00
2023-04-20T06:15:58.063Z,776.00
2023-04-20T06:16:57.993Z,792.00
2023-04-20T06:17:57.998Z,800.00
2023-04-20T06:18:57.981Z,840.00
2023-04-20T06:19:57.998Z,888.00
2023-04-20T06:20:57.990Z,932.00
2023-04-20T06:22:00.656Z,940.00
2023-04-20T06:22:57.976Z,956.00
2023-04-20T06:23:57.973Z,1124.00
2023-04-20T06:24:57.922Z,1268.00
2023-04-20T06:25:57.938Z,1324.00
2023-04-20T06:26:57.904Z,1392.00
2023-04-20T06:27:57.905Z,1336.00
2023-04-20T06:28:57.893Z,1324.00
2023-04-20T06:29:57.866Z,1348.00
2023-04-20T06:30:57.888Z,1380.00
2023-04-20T06:31:57.914Z,1412.00
2023-04-20T06:32:57.899Z,1456.00
2023-04-20T06:33:58.833Z,1532.00
2023-04-20T06:34:57.857Z,1652.00
2023-04-20T06:35:57.816Z,1772.00
2023-04-20T06:36:57.837Z,1904.00
2023-04-20T06:37:57.891Z,2016.00
2023-04-20T06:38:57.791Z,2180.00
2023-04-20T06:39:57.879Z,2368.00
2023-04-20T06:40:57.785Z,2700.00
2023-04-20T06:41:57.761Z,2936.00
2023-04-20T06:42:57.746Z,3092.00
2023-04-20T06:43:57.734Z,3172.00
2023-04-20T06:44:57.745Z,3300.00
2023-04-20T06:45:57.724Z,3576.00
2023-04-20T06:46:57.780Z,4196.00
2023-04-20T06:47:57.748Z,5120.00
2023-04-20T06:48:57.689Z,6264.00
2023-04-20T06:49:57.701Z,5864.00
2023-04-20T06:50:57.683Z,5792.00
2023-04-20T06:51:57.678Z,6148.00
2023-04-20T06:52:58.650Z,6404.00
2023-04-20T06:53:57.641Z,6988.00
2023-04-20T06:54:57.643Z,8280.00
2023-04-20T06:55:57.734Z,7688.00
2023-04-20T06:56:57.615Z,7876.00
2023-04-20T06:57:57.597Z,7900.00
2023-04-20T06:58:58.081Z,8328.00
2023-04-20T06:59:57.612Z,10888.00
2023-04-20T07:00:57.578Z,11492.00
2023-04-20T07:01:57.668Z,10240.00
2023-04-20T07:02:57.606Z,10180.00
2023-04-20T07:03:57.696Z,10276.00
2023-04-20T07:04:57.688Z,10280.00
2023-04-20T07:05:57.540Z,10032.00
2023-04-20T07:06:57.520Z,9300.00
2023-04-20T07:07:57.503Z,8804.00
2023-04-20T07:08:57.494Z,8568.00
2023-04-20T07:09:57.486Z,8844.00
2023-04-20T07:10:57.494Z,9240.00
2023-04-20T07:11:57.560Z,9384.00
2023-04-20T07:12:57.463Z,9468.00
2023-04-20T07:13:57.459Z,10048.00
2023-04-20T07:14:57.436Z,11392.00
2023-04-20T07:15:57.460Z,11040.00
2023-04-20T07:16:57.453Z,11400.00
2023-04-20T07:17:57.446Z,9712.00
2023-04-20T07:18:57.483Z,9152.00
2023-04-20T07:19:57.409Z,8692.00
2023-04-20T07:20:57.404Z,8544.00
2023-04-20T07:21:57.391Z,7616.00
2023-04-20T07:22:57.367Z,6096.00
2023-04-20T07:23:57.391Z,5596.00
2023-04-20T07:24:57.378Z,5968.00
2023-04-20T07:25:57.357Z,5900.00
2023-04-20T07:26:57.320Z,5940.00
2023-04-20T07:27:57.405Z,5748.00
2023-04-20T07:28:57.305Z,5884.00
2023-04-20T07:29:57.308Z,5368.00
2023-04-20T07:30:57.290Z,4848.00
2023-04-20T07:31:57.301Z,4732.00
2023-04-20T07:32:57.311Z,4420.00
2023-04-20T07:33:57.262Z,4112.00
2023-04-20T07:34:57.254Z,4000.00
2023-04-20T07:35:57.243Z,3916.00
2023-04-20T07:36:57.227Z,3824.00
2023-04-20T07:37:57.226Z,3584.00
2023-04-20T07:38:57.216Z,3292.00
2023-04-20T07:39:57.199Z,3404.00
2023-04-20T07:40:57.197Z,3320.00
2023-04-20T07:41:57.225Z,3512.00
2023-04-20T07:42:57.197Z,3912.00
2023-04-20T07:43:57.173Z,4264.00
2023-04-20T07:44:57.149Z,5180.00
2023-04-20T07:45:57.209Z,6396.00
2023-04-20T07:46:57.152Z,7724.00
2023-04-20T07:47:57.213Z,8684.00
2023-04-20T07:48:57.114Z,8228.00
2023-04-20T07:49:57.139Z,8828.00
2023-04-20T07:50:57.107Z,10716.00
2023-04-20T07:52:09.372Z,13392.00
2023-04-20T07:52:59.093Z,15568.00
2023-04-20T07:53:57.075Z,22720.00
2023-04-20T07:54:57.054Z,13332.00
2023-04-20T07:55:57.037Z,12392.00
2023-04-20T07:56:57.030Z,11112.00
2023-04-20T07:57:57.087Z,10192.00
2023-04-20T07:58:57.028Z,9292.00
2023-04-20T07:59:57.003Z,8972.00
2023-04-20T08:00:56.999Z,9972.00
2023-04-20T08:01:57.010Z,10048.00
2023-04-20T08:02:57.072Z,9640.00
2023-04-20T08:03:57.208Z,8184.00
2023-04-20T08:04:57.285Z,7700.00
2023-04-20T08:05:57.021Z,8352.00
2023-04-20T08:06:56.940Z,7308.00
2023-04-20T08:07:56.932Z,8076.00
2023-04-20T08:08:56.967Z,7924.00
2023-04-20T08:09:56.916Z,7640.00
2023-04-20T08:10:56.926Z,7716.00
2023-04-20T08:11:56.893Z,8092.00
2023-04-20T08:12:56.916Z,9356.00
2023-04-20T08:13:58.449Z,10732.00
2023-04-20T08:14:56.936Z,11092.00
2023-04-20T08:15:56.936Z,9888.00
2023-04-20T08:16:56.870Z,8708.00
2023-04-20T08:17:56.871Z,8900.00
2023-04-20T08:18:56.933Z,9708.00
2023-04-20T08:19:56.821Z,10476.00
2023-04-20T08:20:56.827Z,10548.00
2023-04-20T08:21:56.800Z,11180.00
2023-04-20T08:22:56.788Z,11352.00
2023-04-20T08:23:56.773Z,10740.00
2023-04-20T08:24:56.776Z,11016.00
2023-04-20T08:25:56.817Z,13024.00
2023-04-20T08:26:56.753Z,16256.00
2023-04-20T08:27:56.741Z,20096.00
2023-04-20T08:28:56.741Z,20736.00
2023-04-20T08:29:56.718Z,18976.00
2023-04-20T08:30:56.757Z,25088.00
2023-04-20T08:31:56.780Z,15488.00
2023-04-20T08:32:56.741Z,11572.00
2023-04-20T08:33:56.690Z,10360.00
2023-04-20T08:34:56.671Z,11072.00
2023-04-20T08:35:56.659Z,13080.00
2023-04-20T08:36:56.672Z,15544.00
2023-04-20T08:37:56.659Z,18784.00
2023-04-20T08:38:56.620Z,35488.00
2023-04-20T08:39:56.628Z,37344.00
2023-04-20T08:40:56.628Z,36544.00
2023-04-20T08:41:56.608Z,34176.00
2023-04-20T08:42:56.612Z,20096.00
2023-04-20T08:43:56.602Z,20480.00
2023-04-20T08:44:56.581Z,22464.00
2023-04-20T08:45:56.556Z,27648.00
2023-04-20T08:46:56.636Z,34048.00
2023-04-20T08:47:56.596Z,21248.00
2023-04-20T08:48:56.526Z,17856.00
2023-04-20T08:49:56.550Z,16296.00
2023-04-20T08:50:56.516Z,15856.00
2023-04-20T08:52:28.453Z,14288.00
2023-04-20T08:52:56.513Z,14188.00
2023-04-20T08:53:56.506Z,12324.00
2023-04-20T08:54:57.884Z,11112.00
2023-04-20T08:55:57.552Z,11016.00
2023-04-20T08:56:56.478Z,11480.00
2023-04-20T08:57:56.483Z,11616.00
2023-04-20T08:58:56.475Z,11148.00
2023-04-20T08:59:56.457Z,10888.00
2023-04-20T09:00:56.499Z,11480.00
2023-04-20T09:01:56.456Z,12212.00
2023-04-20T09:02:56.569Z,12296.00
2023-04-20T09:03:56.599Z,12176.00
2023-04-20T09:04:56.743Z,12972.00
2023-04-20T09:05:56.401Z,14108.00
2023-04-20T09:06:56.531Z,14864.00
2023-04-20T09:07:56.548Z,15880.00
2023-04-20T09:08:56.362Z,17120.00
2023-04-20T09:09:56.362Z,17120.00
2023-04-20T09:10:56.354Z,16396.00
2023-04-20T09:11:56.330Z,16476.00
2023-04-20T09:12:56.348Z,18272.00
2023-04-20T09:13:56.315Z,26048.00
2023-04-20T09:14:56.307Z,26208.00
2023-04-20T09:15:56.434Z,16480.00
2023-04-20T09:16:56.393Z,15364.00
2023-04-20T09:17:56.311Z,13868.00
2023-04-20T09:18:56.286Z,13576.00
2023-04-20T09:19:56.292Z,14100.00
2023-04-20T09:20:56.251Z,15724.00
2023-04-20T09:21:56.243Z,17792.00
2023-04-20T09:22:56.269Z,23424.00
2023-04-20T09:23:56.248Z,49472.00
2023-04-20T09:24:56.192Z,19424.00
2023-04-20T09:25:56.227Z,18208.00
2023-04-20T09:26:56.200Z,18752.00
2023-04-20T09:27:56.166Z,23072.00
2023-04-20T09:28:56.166Z,25632.00
2023-04-20T09:29:57.130Z,22112.00
2023-04-20T09:30:56.170Z,17760.00
2023-04-20T09:31:56.225Z,17824.00
2023-04-20T09:32:56.160Z,14932.00
2023-04-20T09:33:56.137Z,16512.00
2023-04-20T09:34:56.143Z,12920.00
2023-04-20T09:35:56.186Z,10088.00
2023-04-20T09:36:56.126Z,9672.00
2023-04-20T09:37:56.063Z,8888.00
2023-04-20T09:38:56.113Z,8716.00
2023-04-20T09:39:56.100Z,9400.00
2023-04-20T09:40:56.282Z,10948.00
2023-04-20T09:41:56.041Z,12528.00
2023-04-20T09:42:56.032Z,14272.00
2023-04-20T09:43:56.006Z,15656.00
2023-04-20T09:44:56.011Z,17664.00
2023-04-20T09:45:56.076Z,17824.00
2023-04-20T09:46:55.996Z,18176.00
2023-04-20T09:47:56.049Z,18624.00
2023-04-20T09:48:55.978Z,19136.00
2023-04-20T09:49:56.400Z,18912.00
2023-04-20T09:50:55.954Z,18080.00
2023-04-20T09:51:56.031Z,17344.00
2023-04-20T09:52:55.939Z,16360.00
2023-04-20T09:53:55.922Z,15892.00
2023-04-20T09:54:55.919Z,15852.00
2023-04-20T09:55:55.942Z,17056.00
2023-04-20T09:56:55.906Z,17920.00
2023-04-20T09:57:55.894Z,20704.00
2023-04-20T09:58:55.862Z,17216.00
2023-04-20T09:59:55.868Z,16864.00
2023-04-20T10:00:55.935Z,17056.00
2023-04-20T10:01:55.846Z,19328.00
2023-04-20T10:02:55.928Z,22496.00
2023-04-20T10:03:55.935Z,22944.00
2023-04-20T10:04:55.837Z,18816.00
2023-04-20T10:05:55.805Z,17024.00
2023-04-20T10:06:55.787Z,15192.00
2023-04-20T10:07:55.789Z,14828.00
2023-04-20T10:08:55.762Z,14872.00
2023-04-20T10:09:55.815Z,15228.00
2023-04-20T10:10:55.735Z,13728.00
2023-04-20T10:11:57.754Z,14196.00
2023-04-20T10:12:56.724Z,14388.00
2023-04-20T10:13:55.731Z,13020.00
2023-04-20T10:14:55.702Z,15164.00
2023-04-20T10:15:55.742Z,14460.00
2023-04-20T10:16:55.772Z,14908.00
2023-04-20T10:17:55.758Z,14488.00
2023-04-20T10:18:55.806Z,14796.00
2023-04-20T10:19:55.663Z,14688.00
2023-04-20T10:20:55.675Z,14792.00
2023-04-20T10:21:55.641Z,16072.00
2023-04-20T10:22:55.635Z,17824.00
2023-04-20T10:23:55.632Z,15812.00
2023-04-20T10:24:55.613Z,14204.00
2023-04-20T10:25:55.681Z,17056.00
2023-04-20T10:26:55.669Z,16000.00
2023-04-20T10:27:55.568Z,10716.00
2023-04-20T10:28:55.609Z,11324.00
2023-04-20T10:29:55.615Z,12280.00
2023-04-20T10:30:55.579Z,13188.00
2023-04-20T10:31:55.540Z,12604.00
2023-04-20T10:32:55.604Z,10944.00
2023-04-20T10:33:55.600Z,10092.00
2023-04-20T10:34:55.571Z,8972.00
2023-04-20T10:35:55.502Z,8868.00
2023-04-20T10:36:55.521Z,8956.00
2023-04-20T10:37:55.519Z,9508.00
2023-04-20T10:38:55.508Z,11064.00
2023-04-20T10:39:55.496Z,13088.00
2023-04-20T10:40:55.487Z,14436.00
2023-04-20T10:41:55.458Z,15104.00
2023-04-20T10:42:55.459Z,15080.00
2023-04-20T10:43:55.561Z,16288.00
2023-04-20T10:44:55.427Z,17856.00
2023-04-20T10:45:55.491Z,18720.00
2023-04-20T10:46:55.439Z,19456.00
2023-04-20T10:47:55.507Z,15804.00
2023-04-20T10:48:55.441Z,16992.00
2023-04-20T10:49:55.401Z,17024.00
2023-04-20T10:50:55.350Z,15116.00
2023-04-20T10:51:56.060Z,17312.00
2023-04-20T10:52:55.347Z,18336.00
2023-04-20T10:53:55.376Z,18208.00
2023-04-20T10:54:55.327Z,18176.00
2023-04-20T10:55:55.327Z,17728.00
2023-04-20T10:56:55.313Z,17024.00
2023-04-20T10:57:55.282Z,12868.00
2023-04-20T10:58:55.280Z,12476.00
2023-04-20T10:59:55.274Z,12492.00
2023-04-20T11:00:55.267Z,13788.00
2023-04-20T11:01:55.273Z,12908.00
2023-04-20T11:02:55.463Z,16928.00
2023-04-20T11:03:55.264Z,14260.00
2023-04-20T11:04:55.237Z,17504.00
2023-04-20T11:05:55.206Z,13144.00
2023-04-20T11:06:55.232Z,12696.00
2023-04-20T11:07:55.244Z,12536.00
2023-04-20T11:08:55.180Z,16480.00
2023-04-20T11:09:55.212Z,17472.00
2023-04-20T11:10:55.245Z,13984.00
2023-04-20T11:11:55.168Z,13740.00
2023-04-20T11:12:55.180Z,16256.00
2023-04-20T11:13:55.157Z,16928.00
2023-04-20T11:14:55.105Z,13388.00
2023-04-20T11:15:55.182Z,13960.00
2023-04-20T11:16:55.141Z,14376.00
2023-04-20T11:17:55.217Z,14120.00
2023-04-20T11:18:55.104Z,14944.00
2023-04-20T11:19:55.124Z,14148.00
2023-04-20T11:20:55.116Z,14052.00
2023-04-20T11:21:55.082Z,13384.00
2023-04-20T11:22:55.085Z,13332.00
2023-04-20T11:23:55.085Z,13980.00
2023-04-20T11:24:55.018Z,14144.00
2023-04-20T11:25:55.072Z,13260.00
2023-04-20T11:26:55.064Z,12020.00
2023-04-20T11:27:54.982Z,12980.00
2023-04-20T11:28:56.280Z,14544.00
2023-04-20T11:29:55.993Z,17280.00
2023-04-20T11:30:54.976Z,16032.00
2023-04-20T11:31:55.160Z,13216.00
2023-04-20T11:32:55.077Z,17728.00
2023-04-20T11:33:54.931Z,13736.00
2023-04-20T11:35:05.544Z,13236.00
2023-04-20T11:35:56.928Z,13036.00
2023-04-20T11:36:55.013Z,10824.00
2023-04-20T11:37:54.939Z,10512.00
2023-04-20T11:38:54.941Z,10628.00
2023-04-20T11:39:54.893Z,11216.00
2023-04-20T11:40:54.891Z,11752.00
2023-04-20T11:41:54.969Z,12040.00
2023-04-20T11:42:55.003Z,12024.00
2023-04-20T11:43:55.093Z,12204.00
2023-04-20T11:44:54.896Z,12860.00
2023-04-20T11:45:54.937Z,17024.00
2023-04-20T11:46:54.833Z,16640.00
2023-04-20T11:47:54.831Z,12440.00
2023-04-20T11:48:54.823Z,12008.00
2023-04-20T11:49:54.861Z,12152.00
2023-04-20T11:50:54.844Z,13628.00
2023-04-20T11:51:54.834Z,14484.00
2023-04-20T11:52:54.850Z,13188.00
2023-04-20T11:53:54.774Z,12104.00
2023-04-20T11:54:54.797Z,11496.00
2023-04-20T11:55:54.783Z,10808.00
2023-04-20T11:56:54.753Z,10460.00
2023-04-20T11:57:54.754Z,10552.00
2023-04-20T11:58:54.795Z,11024.00
2023-04-20T11:59:54.875Z,11648.00
2023-04-20T12:00:54.699Z,12732.00
2023-04-20T12:01:54.725Z,13260.00
2023-04-20T12:02:54.822Z,13312.00
2023-04-20T12:03:54.916Z,13180.00
2023-04-20T12:04:54.730Z,15744.00
2023-04-20T12:05:54.743Z,13372.00
2023-04-20T12:06:54.623Z,13492.00
2023-04-20T12:07:54.625Z,14200.00
2023-04-20T12:08:54.628Z,15904.00
2023-04-20T12:09:54.593Z,14260.00
2023-04-20T12:10:56.636Z,14256.00
2023-04-20T12:11:54.599Z,14940.00
2023-04-20T12:12:54.596Z,18560.00
2023-04-20T12:13:54.651Z,18112.00
2023-04-20T12:14:54.599Z,17792.00
2023-04-20T12:15:54.659Z,17856.00
2023-04-20T12:16:55.545Z,18080.00
2023-04-20T12:17:54.562Z,17024.00
2023-04-20T12:18:54.569Z,17312.00
2023-04-20T12:19:54.563Z,17024.00
2023-04-20T12:20:54.531Z,17120.00
2023-04-20T12:21:54.552Z,16608.00
2023-04-20T12:22:56.032Z,16032.00
2023-04-20T12:23:54.496Z,15936.00